LYBE/BEG METAR and TAF weather

Enter ICAO airport designator
Station Type Date Time Source
LYBE METAR 2020/11/25 22:30 UTC NOAA

LYBE 252230Z 04005KT 2000 BR BKN002 M00/M00 Q1027 BECMG 1200


Station Type Date Time Source
LYBE Decoded METAR 2020/11/25 22:30 UTC NOAA

Beograd / Surcin, Serbia and Montenegro (LYBE) 44-49N 020-17E 99M
Nov 25, 2020 - 05:30 PM EST / 2020.11.25 2230 UTC
Wind: from the NE (040 degrees) at 6 MPH (5 KT):0
Visibility: 1 mile(s):0
Sky conditions: mostly cloudy
Weather: mist
Temperature: 32 F (0 C)
Windchill: 26 F (-3 C):1
Dew Point: 32 F (0 C)
Relative Humidity: 100%
Pressure (altimeter): 30.33 in. Hg (1027 hPa)
ob: LYBE 252230Z 04005KT 2000 BR BKN002 M00/M00 Q1027 BECMG 1200
cycle: 22

Station Type Date Time Source
LYBE TAF 2020/11/25 20:59 UTC NOAA

TAF
AMD LYBE 251955Z 2520/2618 07004KT 3000 BR NSC TX05/2613Z TNM01/2605Z
BECMG 2521/2523 1500 BKN005
TEMPO 2603/2608 0200 FZFG OVC002
BECMG 2609/2611 3000 BKN010
TEMPO 2610/2615 5000 SCT012

Example: see airport list